Time;durP1;ratioP1;P1;durP2;ratioP2;P2;SDS_P1;SDS_P2;PMS_P1;PMS_P2;Temp;Humidity;BMP_temperature;BMP_pressure;BME280_temperature;BME280_humidity;BME280_pressure;Samples;Min_cycle;Max_cycle;Signal;HPM_P1;HPM_P2
2022/06/30 00:01:06;;;;;;;2.50;2.30;;;18.40;99.90;;;;;;5067180;28;20653;-89
2022/06/30 00:03:33;;;;;;;2.83;2.63;;;18.40;99.90;;;;;;5064891;28;20690;-90
2022/06/30 00:06:02;;;;;;;3.00;2.80;;;18.40;99.90;;;;;;5060952;28;21191;-88
2022/06/30 00:08:29;;;;;;;2.90;2.70;;;18.40;99.90;;;;;;5073660;28;21383;-85
2022/06/30 00:11:06;;;;;;;2.90;2.37;;;18.30;99.90;;;;;;5073640;28;20708;-85
2022/06/30 00:13:34;;;;;;;2.90;2.60;;;18.30;99.90;;;;;;5066234;28;20645;-86
2022/06/30 00:16:03;;;;;;;2.77;2.57;;;18.40;99.90;;;;;;5067674;28;20632;-86
2022/06/30 00:18:30;;;;;;;3.00;2.80;;;18.30;99.90;;;;;;5066444;28;21029;-84
2022/06/30 00:20:59;;;;;;;3.40;3.10;;;18.30;99.90;;;;;;5066569;28;20704;-86
2022/06/30 00:23:28;;;;;;;3.23;2.93;;;18.30;99.90;;;;;;5062793;28;20774;-85
2022/06/30 00:25:56;;;;;;;3.23;2.93;;;18.30;99.90;;;;;;5067059;28;20637;-86
2022/06/30 00:28:23;;;;;;;2.80;2.60;;;18.30;99.90;;;;;;5063810;28;20634;-86
2022/06/30 00:30:52;;;;;;;3.47;3.17;;;18.40;99.90;;;;;;5067423;28;20597;-86
2022/06/30 00:33:20;;;;;;;3.33;3.03;;;18.50;99.90;;;;;;5057646;28;20621;-85
2022/06/30 00:35:49;;;;;;;2.90;2.70;;;18.40;99.90;;;;;;5066563;28;20641;-84
2022/06/30 00:38:18;;;;;;;2.87;2.57;;;18.30;99.90;;;;;;5061053;28;20713;-86
2022/06/30 00:40:47;;;;;;;4.83;3.47;;;18.30;99.90;;;;;;5066988;28;20648;-85
2022/06/30 00:43:15;;;;;;;3.40;3.10;;;18.20;99.90;;;;;;5061176;28;20645;-85
2022/06/30 00:45:44;;;;;;;4.00;3.50;;;18.10;99.90;;;;;;5067798;28;20700;-85
2022/06/30 00:48:14;;;;;;;3.67;2.80;;;18.00;99.90;;;;;;5067074;28;20625;-84
2022/06/30 00:50:42;;;;;;;2.80;2.60;;;18.10;99.90;;;;;;5068086;28;20708;-85
2022/06/30 00:53:12;;;;;;;3.90;3.50;;;18.10;99.90;;;;;;5067172;28;21086;-85
2022/06/30 00:55:41;;;;;;;3.67;2.90;;;18.10;99.90;;;;;;5067695;28;20625;-85
2022/06/30 00:58:11;;;;;;;3.23;3.03;;;18.10;99.90;;;;;;5061120;28;20657;-86
2022/06/30 01:00:40;;;;;;;3.20;2.97;;;17.90;99.90;;;;;;5065090;28;20943;-86
2022/06/30 01:03:09;;;;;;;4.00;3.40;;;17.90;99.90;;;;;;5067766;28;20655;-85
2022/06/30 01:05:36;;;;;;;3.33;3.00;;;17.90;99.90;;;;;;5066042;28;20731;-86
2022/06/30 01:08:04;;;;;;;3.33;2.60;;;17.90;99.90;;;;;;5067980;28;20974;-85
2022/06/30 01:13:18;;;;;;;3.00;2.70;;;17.90;99.90;;;;;;5067926;28;21187;-86
2022/06/30 01:15:45;;;;;;;2.83;2.60;;;17.80;99.90;;;;;;5066634;28;20614;-85
2022/06/30 01:18:12;;;;;;;2.63;2.43;;;17.70;99.90;;;;;;5067631;28;21191;-85
2022/06/30 01:20:40;;;;;;;3.63;3.10;;;17.70;99.90;;;;;;5058880;28;20629;-86
2022/06/30 01:23:09;;;;;;;2.43;2.23;;;17.60;99.90;;;;;;5061349;28;21514;-84
2022/06/30 01:25:37;;;;;;;2.60;2.40;;;17.60;99.90;;;;;;5067168;28;21484;-87
2022/06/30 01:28:04;;;;;;;3.00;2.77;;;17.70;99.90;;;;;;5066110;28;20641;-85
2022/06/30 01:30:32;;;;;;;1.90;1.80;;;17.70;99.90;;;;;;5067685;28;20613;-85
2022/06/30 01:33:00;;;;;;;3.33;2.70;;;17.80;99.90;;;;;;5061037;28;20972;-85
2022/06/30 01:35:28;;;;;;;3.10;2.80;;;17.80;99.90;;;;;;5067127;28;20613;-85
2022/06/30 01:37:57;;;;;;;3.50;2.67;;;17.90;99.90;;;;;;5061876;28;20686;-85
2022/06/30 01:40:29;;;;;;;2.73;2.60;;;17.90;99.90;;;;;;5068164;28;20660;-86
2022/06/30 01:42:56;;;;;;;3.00;2.73;;;18.00;99.90;;;;;;5067063;28;20625;-85
2022/06/30 01:45:25;;;;;;;4.87;3.37;;;18.00;99.90;;;;;;5075569;28;20620;-88
2022/06/30 01:47:53;;;;;;;3.37;3.07;;;18.00;99.90;;;;;;5078222;28;20636;-85
2022/06/30 01:50:23;;;;;;;3.47;3.17;;;17.90;99.90;;;;;;5070933;28;20975;-86
2022/06/30 01:52:50;;;;;;;5.07;3.20;;;17.80;99.90;;;;;;5070482;28;20612;-86
2022/06/30 01:55:18;;;;;;;5.47;3.33;;;17.80;99.90;;;;;;5071400;28;20605;-85
2022/06/30 01:57:48;;;;;;;3.30;3.00;;;17.70;99.90;;;;;;5068910;28;20621;-86
2022/06/30 02:00:17;;;;;;;3.27;3.00;;;17.70;99.90;;;;;;5068380;28;20625;-84
2022/06/30 02:02:45;;;;;;;3.20;2.80;;;17.60;99.90;;;;;;5070214;28;20629;-84
2022/06/30 02:05:12;;;;;;;3.30;3.00;;;17.40;99.90;;;;;;5071171;28;20605;-85
2022/06/30 02:07:40;;;;;;;2.80;2.60;;;17.40;99.90;;;;;;5069721;28;20678;-86
2022/06/30 02:10:09;;;;;;;2.93;2.73;;;17.40;99.90;;;;;;5070994;28;20753;-86
2022/06/30 02:12:48;;;;;;;4.53;3.33;;;17.40;99.90;;;;;;5069587;28;20691;-84
2022/06/30 02:15:22;;;;;;;3.40;3.20;;;17.30;99.90;;;;;;5068829;28;20682;-85
2022/06/30 02:17:50;;;;;;;3.57;3.27;;;17.30;99.90;;;;;;5065575;28;20751;-85
2022/06/30 02:20:21;;;;;;;3.37;3.07;;;17.30;99.90;;;;;;5070218;28;21056;-85
2022/06/30 02:22:49;;;;;;;3.20;2.90;;;17.30;99.90;;;;;;5070123;28;21035;-84
2022/06/30 02:25:17;;;;;;;3.20;2.83;;;17.30;99.90;;;;;;5068764;28;20673;-85
2022/06/30 02:27:44;;;;;;;3.30;3.00;;;17.30;99.90;;;;;;5069813;28;21179;-85
2022/06/30 02:30:11;;;;;;;3.23;2.47;;;17.30;99.90;;;;;;5065013;28;21496;-87
2022/06/30 02:32:40;;;;;;;3.20;2.90;;;17.30;99.90;;;;;;5069585;28;20627;-85
2022/06/30 02:35:09;;;;;;;3.93;3.57;;;17.20;99.90;;;;;;5070471;28;20620;-85
2022/06/30 02:37:36;;;;;;;3.43;3.13;;;17.10;99.90;;;;;;5069112;28;20657;-84
2022/06/30 02:40:03;;;;;;;3.20;2.90;;;17.10;99.90;;;;;;5070104;28;20730;-84
2022/06/30 02:42:30;;;;;;;4.50;3.47;;;17.10;99.90;;;;;;5069644;28;20703;-84
2022/06/30 02:44:57;;;;;;;3.37;3.07;;;17.10;99.90;;;;;;5070344;28;20784;-85
2022/06/30 02:47:31;;;;;;;3.33;3.03;;;17.10;99.90;;;;;;5062057;28;20624;-85
2022/06/30 02:50:03;;;;;;;3.30;2.93;;;17.00;99.90;;;;;;5070397;28;21177;-84
2022/06/30 02:52:30;;;;;;;2.90;2.70;;;17.00;99.90;;;;;;5061278;28;20620;-85
2022/06/30 02:54:57;;;;;;;2.83;2.50;;;17.00;99.90;;;;;;5070114;28;20652;-84
2022/06/30 02:57:27;;;;;;;2.70;2.50;;;17.10;99.90;;;;;;5067337;28;21363;-85
2022/06/30 02:59:54;;;;;;;3.80;3.50;;;17.00;99.90;;;;;;5067180;28;21075;-85
2022/06/30 03:02:21;;;;;;;3.40;3.17;;;17.00;99.90;;;;;;5069853;28;20716;-84
2022/06/30 03:04:49;;;;;;;3.30;3.00;;;17.00;99.90;;;;;;5069920;28;20641;-84
2022/06/30 03:07:17;;;;;;;4.03;3.63;;;17.00;99.90;;;;;;5068846;28;20625;-84
2022/06/30 03:09:44;;;;;;;3.33;2.97;;;17.00;99.90;;;;;;5068339;28;20663;-84
2022/06/30 03:12:11;;;;;;;4.77;3.67;;;17.10;99.90;;;;;;5061953;28;20703;-85
2022/06/30 03:14:38;;;;;;;4.30;3.87;;;17.00;99.90;;;;;;5069177;28;20606;-85
2022/06/30 03:17:06;;;;;;;3.50;3.20;;;17.00;99.90;;;;;;5069292;28;20625;-85
2022/06/30 03:19:32;;;;;;;3.43;3.10;;;16.90;99.90;;;;;;5068592;28;20734;-84
2022/06/30 03:21:59;;;;;;;3.53;3.23;;;16.90;99.90;;;;;;5066851;28;20649;-84
2022/06/30 03:24:28;;;;;;;4.10;2.90;;;16.90;99.90;;;;;;5065701;28;20734;-85
2022/06/30 03:26:54;;;;;;;4.10;2.60;;;16.80;99.90;;;;;;5061059;28;20657;-84
2022/06/30 03:29:21;;;;;;;4.40;4.00;;;16.90;99.90;;;;;;5068887;28;20664;-84
2022/06/30 03:31:48;;;;;;;3.10;2.83;;;16.90;99.90;;;;;;5063604;28;20618;-86
2022/06/30 03:34:15;;;;;;;3.23;2.93;;;16.80;99.90;;;;;;5069100;28;20724;-86
2022/06/30 03:36:42;;;;;;;3.20;2.90;;;16.90;99.90;;;;;;5068736;28;20991;-85
2022/06/30 03:39:12;;;;;;;3.77;3.47;;;16.90;99.90;;;;;;5060893;28;20705;-85
2022/06/30 03:41:40;;;;;;;3.40;3.03;;;16.80;99.90;;;;;;5066380;28;20613;-85
2022/06/30 03:44:07;;;;;;;4.10;3.73;;;16.90;99.90;;;;;;5068916;28;20756;-84
2022/06/30 03:46:34;;;;;;;3.70;3.40;;;16.80;99.90;;;;;;5068292;28;20621;-85
2022/06/30 03:49:01;;;;;;;3.30;3.10;;;16.70;99.90;;;;;;5068304;28;20660;-85
2022/06/30 03:51:28;;;;;;;3.43;3.13;;;16.80;99.90;;;;;;5067637;28;20714;-84
2022/06/30 03:53:56;;;;;;;4.00;3.43;;;16.80;99.90;;;;;;5062172;28;20628;-83
2022/06/30 03:56:23;;;;;;;3.37;3.07;;;16.80;99.90;;;;;;5067512;28;20720;-84
2022/06/30 03:58:52;;;;;;;3.77;3.47;;;16.90;99.90;;;;;;5068519;28;21043;-84
2022/06/30 04:01:18;;;;;;;3.77;3.47;;;17.00;99.90;;;;;;5063656;28;20654;-84
2022/06/30 04:03:45;;;;;;;2.97;2.77;;;17.00;99.90;;;;;;5068848;28;20752;-84
2022/06/30 04:06:14;;;;;;;2.50;2.30;;;17.10;99.90;;;;;;5066725;28;20629;-86
2022/06/30 04:08:41;;;;;;;6.43;3.03;;;17.10;99.90;;;;;;5065278;28;20632;-83
2022/06/30 04:11:08;;;;;;;3.43;3.13;;;17.20;99.90;;;;;;5068654;28;20724;-84
2022/06/30 04:13:35;;;;;;;3.97;3.60;;;17.20;99.90;;;;;;5067564;28;20625;-84
2022/06/30 04:16:04;;;;;;;3.80;3.30;;;17.30;99.90;;;;;;5067640;28;20731;-84
2022/06/30 04:18:30;;;;;;;3.67;2.73;;;17.30;99.90;;;;;;5068296;28;20626;-84
2022/06/30 04:20:57;;;;;;;3.37;3.07;;;17.40;99.90;;;;;;5064740;28;20724;-83
2022/06/30 04:23:24;;;;;;;3.77;3.40;;;17.40;99.90;;;;;;5056448;28;20686;-84
2022/06/30 04:25:51;;;;;;;3.17;2.93;;;17.50;99.90;;;;;;5059485;28;20653;-84
2022/06/30 04:28:18;;;;;;;4.87;4.37;;;17.60;99.90;;;;;;5067979;28;21212;-84
2022/06/30 04:33:32;;;;;;;3.90;3.50;;;17.90;99.90;;;;;;5068176;28;20613;-84
2022/06/30 04:35:59;;;;;;;3.43;3.20;;;18.00;99.90;;;;;;5058548;28;20620;-84
2022/06/30 04:38:26;;;;;;;3.77;3.47;;;18.10;99.90;;;;;;5065983;28;20740;-84
2022/06/30 04:43:37;;;;;;;6.37;3.40;;;18.20;99.90;;;;;;5067647;28;20609;-84
2022/06/30 04:46:04;;;;;;;4.70;3.73;;;18.10;99.90;;;;;;5062375;28;20644;-85
2022/06/30 04:48:32;;;;;;;3.27;2.97;;;18.20;99.90;;;;;;5058307;28;20625;-84
2022/06/30 04:50:59;;;;;;;3.67;3.30;;;18.30;99.90;;;;;;5063210;28;20712;-84
2022/06/30 04:53:26;;;;;;;3.90;3.50;;;18.40;99.90;;;;;;5063756;28;20729;-84
2022/06/30 04:56:02;;;;;;;3.70;3.40;;;18.50;99.90;;;;;;5064026;28;20631;-86
2022/06/30 04:58:29;;;;;;;3.57;3.27;;;18.60;99.90;;;;;;5063346;28;20632;-84
2022/06/30 05:00:56;;;;;;;4.40;3.33;;;18.70;99.90;;;;;;5065930;28;21268;-84
2022/06/30 05:03:23;;;;;;;4.50;3.63;;;18.70;99.90;;;;;;5063659;28;20628;-84
2022/06/30 05:05:53;;;;;;;5.40;4.07;;;18.80;99.90;;;;;;5067199;28;20645;-84
2022/06/30 05:08:20;;;;;;;4.03;3.63;;;18.80;99.90;;;;;;5066353;28;21065;-84
2022/06/30 05:10:47;;;;;;;3.90;3.60;;;18.80;99.90;;;;;;5064753;28;20644;-85
2022/06/30 05:13:15;;;;;;;4.90;3.03;;;18.80;99.90;;;;;;5067509;28;20625;-83
2022/06/30 05:15:42;;;;;;;3.97;3.67;;;18.90;99.90;;;;;;5066934;28;20657;-84
2022/06/30 05:18:09;;;;;;;4.37;3.40;;;19.00;99.90;;;;;;5067481;28;20714;-85
2022/06/30 05:20:36;;;;;;;3.20;2.90;;;19.00;99.90;;;;;;5067426;28;21158;-84
2022/06/30 05:23:04;;;;;;;2.97;2.77;;;19.00;99.90;;;;;;5061148;28;21311;-84
2022/06/30 05:28:15;;;;;;;4.20;3.33;;;19.30;99.90;;;;;;5053992;28;20731;-84
2022/06/30 05:30:45;;;;;;;4.10;3.70;;;19.40;99.90;;;;;;5067241;28;20709;-83
2022/06/30 05:33:12;;;;;;;3.90;3.50;;;19.50;99.90;;;;;;5070960;28;20660;-84
2022/06/30 05:35:40;;;;;;;3.80;3.50;;;19.60;99.90;;;;;;5068604;28;20653;-84
2022/06/30 05:38:08;;;;;;;3.87;3.57;;;19.50;99.90;;;;;;5071225;28;21220;-84
2022/06/30 05:40:35;;;;;;;3.60;3.30;;;19.60;99.90;;;;;;5071003;28;20633;-84
2022/06/30 05:43:02;;;;;;;3.40;3.10;;;19.70;99.90;;;;;;5069687;28;20994;-85
2022/06/30 05:45:28;;;;;;;4.30;4.00;;;19.80;99.90;;;;;;5070604;28;20681;-84
2022/06/30 05:47:55;;;;;;;4.10;3.70;;;19.90;99.90;;;;;;5068193;28;20694;-85
2022/06/30 05:50:23;;;;;;;4.47;4.07;;;20.00;99.90;;;;;;5066983;28;20640;-86
2022/06/30 05:52:50;;;;;;;3.97;3.60;;;20.20;99.90;;;;;;5067277;28;21016;-84
2022/06/30 05:55:19;;;;;;;3.27;2.97;;;20.30;99.90;;;;;;5066028;28;20684;-84
2022/06/30 05:57:56;;;;;;;3.80;3.50;;;20.40;99.90;;;;;;5063920;28;20712;-85
2022/06/30 06:00:24;;;;;;;4.93;3.43;;;20.50;99.90;;;;;;5068474;28;20633;-85
2022/06/30 06:02:51;;;;;;;4.80;4.40;;;20.50;99.90;;;;;;5070615;28;20649;-85
2022/06/30 06:05:19;;;;;;;4.27;3.87;;;20.60;99.90;;;;;;5071017;28;20676;-84
2022/06/30 06:07:46;;;;;;;4.90;4.50;;;20.70;99.90;;;;;;5070042;28;20617;-84
2022/06/30 06:10:14;;;;;;;3.97;3.50;;;20.80;99.90;;;;;;5070969;28;20625;-85
2022/06/30 06:12:43;;;;;;;3.90;3.50;;;20.90;99.90;;;;;;5069945;28;20632;-85
2022/06/30 06:15:11;;;;;;;4.50;4.10;;;20.90;99.90;;;;;;5064142;28;20732;-84
2022/06/30 06:17:42;;;;;;;3.43;3.17;;;21.00;99.90;;;;;;5074080;28;20629;-84
2022/06/30 06:20:10;;;;;;;4.97;4.20;;;21.10;99.90;;;;;;5069776;28;20625;-86
2022/06/30 06:22:38;;;;;;;3.93;3.63;;;21.20;99.90;;;;;;5069966;28;20722;-84
2022/06/30 06:25:05;;;;;;;3.40;3.13;;;21.30;99.90;;;;;;5070763;28;21222;-85
2022/06/30 06:27:33;;;;;;;4.20;3.90;;;21.40;99.90;;;;;;5069843;28;21287;-85
2022/06/30 06:30:01;;;;;;;6.17;3.63;;;21.40;99.90;;;;;;5068830;28;21214;-86
2022/06/30 06:32:27;;;;;;;3.10;2.90;;;21.40;99.90;;;;;;5069561;28;21077;-84
2022/06/30 06:34:54;;;;;;;3.83;3.53;;;21.50;99.90;;;;;;5070644;28;20652;-83
2022/06/30 06:37:21;;;;;;;3.17;2.97;;;21.60;99.90;;;;;;5068995;28;20715;-84
2022/06/30 06:39:48;;;;;;;5.03;3.83;;;21.80;99.90;;;;;;5064024;28;20711;-85
2022/06/30 06:42:15;;;;;;;3.80;3.50;;;21.80;99.90;;;;;;5070194;28;20634;-84
2022/06/30 06:44:42;;;;;;;4.10;3.80;;;21.90;99.90;;;;;;5069791;28;21040;-84
2022/06/30 06:47:10;;;;;;;3.90;3.60;;;22.00;99.90;;;;;;5069812;28;20625;-86
2022/06/30 06:49:37;;;;;;;4.17;3.90;;;22.00;99.90;;;;;;5069356;28;20732;-83
2022/06/30 06:52:05;;;;;;;4.33;3.93;;;22.10;99.90;;;;;;5070014;28;20960;-84
2022/06/30 06:54:33;;;;;;;4.30;3.90;;;22.10;99.90;;;;;;5069759;28;20751;-83
2022/06/30 06:57:00;;;;;;;3.63;3.33;;;22.30;99.90;;;;;;5068111;28;21011;-85
2022/06/30 06:59:27;;;;;;;3.80;3.50;;;22.30;99.90;;;;;;5070178;28;21019;-82
2022/06/30 07:01:54;;;;;;;3.97;3.57;;;22.20;99.90;;;;;;5065588;28;20631;-82
2022/06/30 07:04:22;;;;;;;3.83;3.40;;;22.30;99.90;;;;;;5070129;28;20971;-84
2022/06/30 07:06:49;;;;;;;7.90;4.57;;;22.40;99.90;;;;;;5069055;28;20725;-84
2022/06/30 07:09:16;;;;;;;3.67;3.37;;;22.50;99.90;;;;;;5059245;28;20643;-83
2022/06/30 07:11:43;;;;;;;5.03;4.53;;;22.50;99.90;;;;;;5069242;28;21186;-85
2022/06/30 07:14:10;;;;;;;3.60;3.30;;;22.50;99.70;;;;;;5064594;28;20620;-84
2022/06/30 07:16:37;;;;;;;6.40;4.20;;;22.60;99.90;;;;;;5068807;28;20631;-85
2022/06/30 07:19:04;;;;;;;4.00;3.63;;;22.60;99.20;;;;;;5069433;28;21240;-82
2022/06/30 07:21:32;;;;;;;4.87;3.70;;;22.60;99.80;;;;;;5066062;28;21197;-84
2022/06/30 07:23:59;;;;;;;4.90;4.50;;;22.80;99.90;;;;;;5068374;28;21288;-84
2022/06/30 07:26:26;;;;;;;5.90;5.20;;;22.90;99.20;;;;;;5058825;28;21207;-85
2022/06/30 07:28:52;;;;;;;4.50;4.10;;;23.20;99.90;;;;;;5061025;28;20308;-84
2022/06/30 07:31:20;;;;;;;4.37;4.07;;;23.40;98.90;;;;;;5068726;28;20716;-86
2022/06/30 07:33:47;;;;;;;3.73;3.43;;;23.50;98.20;;;;;;5082982;28;20756;-86
2022/06/30 07:36:14;;;;;;;3.87;3.40;;;23.60;97.70;;;;;;5080542;28;20706;-88
2022/06/30 07:38:44;;;;;;;3.57;3.27;;;23.60;98.00;;;;;;5067373;28;20662;-86
2022/06/30 07:41:14;;;;;;;3.57;3.27;;;23.70;97.90;;;;;;5071266;28;20625;-87
2022/06/30 07:43:47;;;;;;;3.67;3.37;;;23.70;96.80;;;;;;5072071;28;20621;-86
2022/06/30 07:46:14;;;;;;;4.13;3.20;;;23.70;97.40;;;;;;5069557;28;20653;-86
2022/06/30 07:48:41;;;;;;;3.63;3.33;;;23.80;97.10;;;;;;5074459;28;20621;-87
2022/06/30 07:51:08;;;;;;;4.10;3.80;;;24.00;97.30;;;;;;5071595;28;21036;-87
2022/06/30 07:53:35;;;;;;;3.30;3.00;;;24.10;96.50;;;;;;5073447;28;20678;-88
2022/06/30 07:56:04;;;;;;;3.90;3.00;;;24.30;96.30;;;;;;5062882;28;20606;-86
2022/06/30 07:58:33;;;;;;;3.70;3.40;;;24.30;95.80;;;;;;5067894;28;20797;-86
2022/06/30 08:01:00;;;;;;;3.63;3.33;;;24.40;95.40;;;;;;5066433;28;20633;-87
2022/06/30 08:03:27;;;;;;;3.43;3.20;;;24.40;95.50;;;;;;5074053;28;20629;-86
2022/06/30 08:05:54;;;;;;;3.83;2.90;;;24.60;95.50;;;;;;5060005;28;20969;-88
2022/06/30 08:08:21;;;;;;;3.67;3.47;;;24.60;95.70;;;;;;5067886;28;20656;-85
2022/06/30 08:10:48;;;;;;;4.43;4.13;;;24.60;95.40;;;;;;5067677;28;20661;-88
2022/06/30 08:13:16;;;;;;;4.30;3.90;;;24.80;95.10;;;;;;5063308;28;21465;-87
2022/06/30 08:15:43;;;;;;;3.60;3.27;;;24.80;94.90;;;;;;5067715;28;21219;-85
2022/06/30 08:18:10;;;;;;;3.23;2.93;;;24.90;95.00;;;;;;5075201;28;20724;-86
2022/06/30 08:20:37;;;;;;;3.47;3.27;;;25.00;94.80;;;;;;5077806;28;20673;-86
2022/06/30 08:23:07;;;;;;;3.47;3.27;;;25.00;94.30;;;;;;5064897;28;20624;-88
2022/06/30 08:25:34;;;;;;;4.00;3.60;;;25.10;94.80;;;;;;5071730;28;20745;-86
2022/06/30 08:28:03;;;;;;;3.37;3.07;;;25.20;94.60;;;;;;5066810;28;21219;-85
2022/06/30 08:30:32;;;;;;;3.43;3.23;;;25.40;93.90;;;;;;5072652;28;21101;-86
2022/06/30 08:32:59;;;;;;;3.30;3.03;;;25.50;93.70;;;;;;5068190;28;20616;-87
2022/06/30 08:35:26;;;;;;;4.43;4.03;;;25.50;93.40;;;;;;5088111;28;21208;-87
2022/06/30 08:37:54;;;;;;;2.70;2.50;;;25.50;93.50;;;;;;5069321;28;20625;-86
2022/06/30 08:43:19;;;;;;;3.10;2.90;;;25.70;92.20;;;;;;5067436;28;20641;-85
2022/06/30 08:45:48;;;;;;;3.10;2.90;;;25.80;92.00;;;;;;5067676;28;20694;-86
2022/06/30 08:48:15;;;;;;;3.60;3.30;;;25.90;90.60;;;;;;5062546;28;21164;-86
2022/06/30 08:50:44;;;;;;;2.90;2.70;;;25.90;90.10;;;;;;5068978;28;20732;-86
2022/06/30 08:53:11;;;;;;;3.90;3.30;;;26.00;90.40;;;;;;5068127;28;20620;-87
2022/06/30 08:55:38;;;;;;;3.27;2.80;;;26.10;90.20;;;;;;5062831;28;20737;-86
2022/06/30 08:58:13;;;;;;;3.80;2.50;;;26.10;90.50;;;;;;5066615;28;21317;-87
2022/06/30 09:00:42;;;;;;;2.63;2.53;;;26.10;88.50;;;;;;5066325;28;21178;-87
2022/06/30 09:03:11;;;;;;;2.90;2.70;;;26.20;89.30;;;;;;5066009;28;20621;-87
2022/06/30 09:05:39;;;;;;;2.90;2.70;;;26.20;89.40;;;;;;5075561;28;20653;-86
2022/06/30 09:08:18;;;;;;;2.23;2.03;;;26.20;89.60;;;;;;5063095;28;20643;-87
2022/06/30 09:10:50;;;;;;;3.50;2.83;;;26.40;89.70;;;;;;5067110;28;21205;-87
2022/06/30 09:13:17;;;;;;;3.00;2.80;;;26.40;85.00;;;;;;5067126;28;20629;-86
2022/06/30 09:15:44;;;;;;;2.60;2.40;;;26.50;84.00;;;;;;5064535;28;20653;-85
2022/06/30 09:18:25;;;;;;;2.43;2.23;;;26.50;83.40;;;;;;5067766;28;20995;-86
2022/06/30 09:20:54;;;;;;;2.40;2.23;;;26.70;88.40;;;;;;5072188;28;20656;-87
2022/06/30 09:23:24;;;;;;;3.10;2.90;;;26.70;88.80;;;;;;5067385;28;20642;-86
2022/06/30 09:25:55;;;;;;;3.33;3.03;;;26.90;86.70;;;;;;5067155;28;20699;-88
2022/06/30 09:28:43;;;;;;;3.07;2.67;;;27.00;86.80;;;;;;5067105;28;20664;-87
2022/06/30 09:31:10;;;;;;;2.20;2.10;;;27.20;80.20;;;;;;5078324;28;20653;-86
2022/06/30 09:33:44;;;;;;;2.90;2.70;;;27.30;80.00;;;;;;5059910;28;20712;-86
2022/06/30 09:36:23;;;;;;;2.40;2.30;;;27.30;79.90;;;;;;5064615;28;20734;-86
2022/06/30 09:39:02;;;;;;;2.57;2.37;;;27.30;80.90;;;;;;5066786;28;20628;-87
2022/06/30 09:41:30;;;;;;;2.83;2.63;;;27.50;81.50;;;;;;5067241;28;21182;-87
2022/06/30 09:43:58;;;;;;;2.60;2.40;;;27.40;82.00;;;;;;5076435;28;20625;-86
2022/06/30 09:46:25;;;;;;;2.80;2.60;;;27.60;79.70;;;;;;5067046;28;20687;-85
2022/06/30 09:48:53;;;;;;;2.33;2.13;;;27.60;77.70;;;;;;5065925;28;20625;-86
2022/06/30 09:51:20;;;;;;;2.40;2.20;;;27.70;73.20;;;;;;5058356;28;20645;-84
2022/06/30 09:54:07;;;;;;;2.63;2.43;;;27.70;70.20;;;;;;5062477;28;20840;-85
2022/06/30 09:56:34;;;;;;;2.93;2.43;;;27.60;71.50;;;;;;5050252;28;20710;-85
2022/06/30 09:59:01;;;;;;;2.43;2.20;;;27.90;72.70;;;;;;5068368;28;20626;-85
2022/06/30 10:01:28;;;;;;;2.40;2.20;;;27.70;73.20;;;;;;5065680;28;20711;-84
2022/06/30 10:04:01;;;;;;;7.73;2.50;;;27.90;72.10;;;;;;5066488;28;20616;-85
2022/06/30 10:06:29;;;;;;;2.07;1.90;;;28.00;73.00;;;;;;5067243;28;21222;-86
2022/06/30 10:08:57;;;;;;;3.37;3.07;;;28.20;74.50;;;;;;5065086;28;20617;-85
2022/06/30 10:11:27;;;;;;;2.70;2.07;;;28.40;70.70;;;;;;5070336;28;20691;-86
2022/06/30 10:13:54;;;;;;;2.30;2.20;;;28.40;70.30;;;;;;5062905;28;20733;-85
2022/06/30 10:16:22;;;;;;;4.67;2.27;;;28.50;73.20;;;;;;5066080;28;20665;-85
2022/06/30 10:18:50;;;;;;;2.47;2.37;;;28.60;72.00;;;;;;5068331;28;20686;-86
2022/06/30 10:21:21;;;;;;;2.27;2.17;;;28.70;70.30;;;;;;5073204;28;20670;-85
2022/06/30 10:23:50;;;;;;;2.83;2.63;;;28.70;69.20;;;;;;5062835;28;20683;-85
2022/06/30 10:29:06;;;;;;;2.43;2.23;;;28.90;69.40;;;;;;5070374;28;20604;-85
2022/06/30 10:31:38;;;;;;;2.97;2.77;;;28.90;68.80;;;;;;5066713;28;20706;-85
2022/06/30 10:34:12;;;;;;;2.80;2.60;;;29.00;68.20;;;;;;5070183;28;20637;-84
2022/06/30 10:36:45;;;;;;;3.13;2.83;;;29.10;67.80;;;;;;5062515;28;20672;-86
2022/06/30 10:39:21;;;;;;;2.47;2.37;;;29.10;70.20;;;;;;5062082;28;20756;-85
2022/06/30 10:42:04;;;;;;;3.20;3.00;;;29.40;69.90;;;;;;5064740;28;20661;-87
2022/06/30 10:44:34;;;;;;;2.70;2.50;;;29.70;71.20;;;;;;5070003;28;20660;-87
2022/06/30 10:47:09;;;;;;;2.80;2.60;;;29.80;68.00;;;;;;5065311;28;20738;-87
2022/06/30 10:49:58;;;;;;;2.83;2.63;;;29.80;67.40;;;;;;5061998;28;20617;-87
2022/06/30 10:52:36;;;;;;;3.10;2.90;;;30.00;65.80;;;;;;5072060;28;20628;-87
2022/06/30 10:55:10;;;;;;;2.30;2.20;;;30.00;64.20;;;;;;5075473;28;20723;-88
2022/06/30 10:58:06;;;;;;;3.27;3.03;;;30.20;65.80;;;;;;5068670;28;20625;-87
2022/06/30 11:00:51;;;;;;;3.20;2.90;;;30.30;66.10;;;;;;5069855;28;20724;-86
2022/06/30 11:04:00;;;;;;;3.10;2.90;;;30.50;63.10;;;;;;5065012;28;21422;-86
2022/06/30 11:06:56;;;;;;;2.90;2.70;;;30.40;61.00;;;;;;5063411;28;20680;-87
2022/06/30 11:10:08;;;;;;;3.10;2.90;;;30.40;61.10;;;;;;5059173;28;20648;-85
2022/06/30 11:12:57;;;;;;;3.20;3.00;;;30.40;60.80;;;;;;5068458;28;21528;-87
2022/06/30 11:15:57;;;;;;;2.77;2.57;;;30.60;61.10;;;;;;5069862;28;20622;-87
2022/06/30 11:18:26;;;;;;;3.20;3.00;;;30.80;59.70;;;;;;5065169;28;20636;-86
2022/06/30 11:20:58;;;;;;;2.37;2.20;;;30.90;59.70;;;;;;5069097;28;20612;-87
2022/06/30 11:23:33;;;;;;;3.07;2.80;;;31.20;59.50;;;;;;5069267;28;20640;-86
2022/06/30 11:28:52;;;;;;;2.40;2.30;;;31.20;59.20;;;;;;5057739;28;20640;-86
2022/06/30 11:31:34;;;;;;;3.60;3.40;;;31.50;61.10;;;;;;5068670;28;20635;-86
2022/06/30 11:34:05;;;;;;;3.17;2.87;;;31.70;57.90;;;;;;5062254;28;20640;-88
2022/06/30 11:36:38;;;;;;;2.80;2.60;;;32.10;57.50;;;;;;5069021;28;20629;-86
2022/06/30 11:39:07;;;;;;;3.50;3.20;;;32.10;57.90;;;;;;5066163;28;20658;-88
2022/06/30 11:44:29;;;;;;;2.90;2.70;;;32.00;56.20;;;;;;5061736;28;20618;-87
2022/06/30 11:46:58;;;;;;;3.10;2.73;;;32.90;56.50;;;;;;5061141;28;21169;-86
2022/06/30 11:49:27;;;;;;;2.30;2.20;;;33.30;55.60;;;;;;5068696;28;20648;-86
2022/06/30 11:51:57;;;;;;;2.87;2.67;;;33.50;54.30;;;;;;5068831;28;20703;-87
2022/06/30 11:54:30;;;;;;;3.53;3.23;;;34.10;55.80;;;;;;5067458;28;20728;-86
2022/06/30 11:57:00;;;;;;;3.23;3.03;;;34.10;56.60;;;;;;5064807;28;20622;-86
2022/06/30 11:59:28;;;;;;;3.00;2.80;;;34.70;55.60;;;;;;5063919;28;20703;-85
2022/06/30 12:02:06;;;;;;;3.47;2.97;;;35.10;53.00;;;;;;5054435;28;20659;-86
2022/06/30 12:04:34;;;;;;;2.87;2.70;;;35.70;50.60;;;;;;5067356;28;20648;-87
2022/06/30 12:07:01;;;;;;;2.30;2.20;;;35.80;49.90;;;;;;5060811;28;20684;-85
2022/06/30 12:09:28;;;;;;;3.23;2.90;;;36.40;48.80;;;;;;5068652;28;20632;-86
2022/06/30 12:11:58;;;;;;;3.43;2.47;;;37.20;49.60;;;;;;5068614;28;20210;-87
2022/06/30 12:14:25;;;;;;;2.30;2.20;;;37.80;48.80;;;;;;5068488;28;20205;-86
2022/06/30 12:16:57;;;;;;;2.58;2.47;;;38.00;49.60;;;;;;5067694;28;20198;-87
2022/06/30 12:19:25;;;;;;;3.10;2.90;;;38.60;45.90;;;;;;5068494;28;20206;-87
2022/06/30 12:22:40;;;;;;;2.95;2.75;;;38.70;45.40;;;;;;5064073;28;20199;-88
2022/06/30 12:25:50;;;;;;;2.97;2.88;;;38.20;45.00;;;;;;5062155;28;20237;-88
2022/06/30 12:32:03;;;;;;;2.88;2.67;;;39.90;43.10;;;;;;5035172;28;20403;-88
2022/06/30 12:37:33;;;;;;;2.85;2.70;;;40.50;41.00;;;;;;5055506;28;20317;-87
2022/06/30 12:40:12;;;;;;;2.85;2.65;;;40.40;43.50;;;;;;5061555;28;20703;-87
2022/06/30 12:42:42;;;;;;;2.65;2.30;;;40.40;43.20;;;;;;5059022;28;20562;-86
2022/06/30 12:45:42;;;;;;;2.60;2.50;;;40.50;42.80;;;;;;5067897;28;20295;-87
2022/06/30 12:48:12;;;;;;;2.70;2.60;;;40.60;40.70;;;;;;5062032;28;20238;-86
2022/06/30 12:50:40;;;;;;;2.92;2.72;;;40.60;40.80;;;;;;5060110;28;20266;-87
2022/06/30 12:53:19;;;;;;;3.35;3.15;;;40.60;41.50;;;;;;5067408;28;20289;-87
2022/06/30 12:56:07;;;;;;;2.42;2.33;;;40.70;40.60;;;;;;5066750;28;20277;-87
2022/06/30 12:59:05;;;;;;;2.65;2.53;;;40.30;40.80;;;;;;5065050;28;20258;-87
2022/06/30 13:01:36;;;;;;;2.90;2.70;;;40.40;40.60;;;;;;5053621;28;20627;-88
2022/06/30 13:04:13;;;;;;;2.80;2.60;;;40.10;42.20;;;;;;5058830;28;20841;-89
2022/06/30 13:06:41;;;;;;;2.67;2.58;;;40.20;41.60;;;;;;5067265;28;20251;-87
2022/06/30 13:09:11;;;;;;;3.00;2.80;;;40.40;41.70;;;;;;5062676;28;20209;-88
2022/06/30 13:11:45;;;;;;;2.88;2.72;;;41.00;40.60;;;;;;5064586;28;20460;-88
2022/06/30 13:14:15;;;;;;;2.70;2.60;;;40.90;40.50;;;;;;5067850;28;20666;-88
2022/06/30 13:16:42;;;;;;;4.75;2.75;;;41.10;40.20;;;;;;5062076;28;20259;-88
2022/06/30 13:19:11;;;;;;;2.95;2.75;;;41.30;39.50;;;;;;5077484;28;20205;-87
2022/06/30 13:21:38;;;;;;;2.85;2.65;;;41.20;40.40;;;;;;5067123;28;20198;-89
2022/06/30 13:24:06;;;;;;;2.67;2.45;;;41.40;39.70;;;;;;5059428;28;20211;-86
2022/06/30 13:26:33;;;;;;;2.45;2.30;;;41.40;39.10;;;;;;5065063;28;20203;-86
2022/06/30 13:29:01;;;;;;;3.00;2.83;;;41.50;39.30;;;;;;5070870;28;20209;-88
2022/06/30 13:31:31;;;;;;;2.80;2.70;;;41.40;39.20;;;;;;5067098;28;20202;-90